createdAt,value
2022-10-09T00:01:28.082Z,100649.66
2022-10-09T00:03:56.585Z,100653.00
2022-10-09T00:06:26.148Z,100643.91
2022-10-09T00:08:53.066Z,100644.72
2022-10-09T00:11:26.539Z,100650.25
2022-10-09T00:13:54.649Z,100650.25
2022-10-09T00:16:22.846Z,100650.03
2022-10-09T00:18:50.542Z,100649.81
2022-10-09T00:21:26.001Z,100646.66
2022-10-09T00:23:55.978Z,100639.44
2022-10-09T00:26:23.229Z,100641.38
2022-10-09T00:28:50.558Z,100639.94
2022-10-09T00:31:21.034Z,100632.47
2022-10-09T00:33:51.118Z,100638.53
2022-10-09T00:36:21.084Z,100633.25
2022-10-09T00:38:51.264Z,100633.25
2022-10-09T00:41:23.901Z,100634.44
2022-10-09T00:43:53.928Z,100630.13
2022-10-09T00:46:27.254Z,100622.06
2022-10-09T00:49:05.342Z,100618.22
2022-10-09T00:51:33.788Z,100622.19
2022-10-09T00:54:03.197Z,100613.72
2022-10-09T00:56:30.082Z,100618.91
2022-10-09T00:58:59.281Z,100613.13
2022-10-09T01:01:26.444Z,100607.00
2022-10-09T01:03:53.307Z,100607.00
2022-10-09T01:06:45.498Z,100604.59
2022-10-09T01:09:15.033Z,100603.50
2022-10-09T01:12:32.758Z,100609.66
2022-10-09T01:15:05.604Z,100605.56
2022-10-09T01:17:59.235Z,100600.06
2022-10-09T01:20:33.087Z,100600.19
2022-10-09T01:23:17.003Z,100598.62
2022-10-09T01:26:03.386Z,100600.91
2022-10-09T01:28:31.098Z,100599.13
2022-10-09T01:31:01.256Z,100607.06
2022-10-09T01:33:29.689Z,100601.16
2022-10-09T01:35:57.550Z,100608.00
2022-10-09T01:38:25.025Z,100606.03
2022-10-09T01:40:54.725Z,100600.75
2022-10-09T01:43:21.844Z,100603.22
2022-10-09T01:45:49.973Z,100607.38
2022-10-09T01:48:22.091Z,100609.78
2022-10-09T01:50:54.027Z,100596.09
2022-10-09T01:53:21.578Z,100602.81
2022-10-09T01:56:04.131Z,100609.44
2022-10-09T01:58:37.887Z,100611.97
2022-10-09T02:01:08.359Z,100610.47
2022-10-09T02:03:36.642Z,100611.97
2022-10-09T02:06:08.038Z,100614.53
2022-10-09T02:08:37.221Z,100610.97
2022-10-09T02:11:04.526Z,100612.03
2022-10-09T02:13:32.858Z,100613.00
2022-10-09T02:16:18.107Z,100614.81
2022-10-09T02:18:48.511Z,100617.72
2022-10-09T02:21:21.209Z,100623.59
2022-10-09T02:23:51.735Z,100622.88
2022-10-09T02:26:21.913Z,100625.50
2022-10-09T02:28:52.105Z,100624.94
2022-10-09T02:31:27.840Z,100622.56
2022-10-09T02:33:58.663Z,100627.72
2022-10-09T02:36:26.454Z,100625.84
2022-10-09T02:38:54.996Z,100626.47
2022-10-09T02:41:22.241Z,100631.09
2022-10-09T02:43:49.405Z,100638.19
2022-10-09T02:46:16.849Z,100640.41
2022-10-09T02:48:43.791Z,100648.97
2022-10-09T02:51:12.338Z,100648.91
2022-10-09T02:53:39.195Z,100649.91
2022-10-09T02:56:06.343Z,100649.00
2022-10-09T02:58:34.706Z,100648.53
2022-10-09T03:01:01.987Z,100647.78
2022-10-09T03:03:28.938Z,100655.75
2022-10-09T03:06:12.037Z,100656.28
2022-10-09T03:08:41.710Z,100646.28
2022-10-09T03:11:09.033Z,100661.47
2022-10-09T03:13:36.047Z,100658.56
2022-10-09T03:16:04.836Z,100639.97
2022-10-09T03:18:32.170Z,100648.91
2022-10-09T03:20:59.030Z,100650.75
2022-10-09T03:23:26.239Z,100651.00
2022-10-09T03:26:00.643Z,100658.94
2022-10-09T03:28:27.941Z,100661.88
2022-10-09T03:30:55.622Z,100658.41
2022-10-09T03:33:22.767Z,100660.06
2022-10-09T03:35:50.172Z,100656.84
2022-10-09T03:38:17.386Z,100648.03
2022-10-09T03:40:45.094Z,100647.66
2022-10-09T03:43:12.013Z,100655.75
2022-10-09T03:45:40.739Z,100669.12
2022-10-09T03:48:08.364Z,100666.59
2022-10-09T03:50:35.340Z,100661.31
2022-10-09T03:53:02.435Z,100669.12
2022-10-09T03:55:29.286Z,100659.47
2022-10-09T03:57:56.143Z,100675.00
2022-10-09T04:00:23.528Z,100670.59
2022-10-09T04:02:51.002Z,100680.09
2022-10-09T04:05:18.086Z,100680.66
2022-10-09T04:07:45.093Z,100684.47
2022-10-09T04:10:12.360Z,100684.03
2022-10-09T04:12:39.255Z,100683.19
2022-10-09T04:15:06.626Z,100680.72
2022-10-09T04:17:33.724Z,100683.09
2022-10-09T04:20:00.556Z,100682.34
2022-10-09T04:22:27.412Z,100671.88
2022-10-09T04:24:54.514Z,100679.00
2022-10-09T04:27:21.380Z,100679.41
2022-10-09T04:29:48.261Z,100682.66
2022-10-09T04:32:15.388Z,100691.28
2022-10-09T04:34:42.277Z,100698.25
2022-10-09T04:37:09.135Z,100710.41
2022-10-09T04:39:36.231Z,100703.00
2022-10-09T04:42:03.117Z,100710.50
2022-10-09T04:44:29.993Z,100714.00
2022-10-09T04:46:57.222Z,100711.34
2022-10-09T04:49:24.076Z,100721.56
2022-10-09T04:51:50.931Z,100732.47
2022-10-09T04:54:18.183Z,100734.00
2022-10-09T04:56:45.035Z,100747.25
2022-10-09T04:59:12.680Z,100743.38
2022-10-09T05:01:39.889Z,100756.91
2022-10-09T05:04:06.930Z,100755.69
2022-10-09T05:06:33.804Z,100747.00
2022-10-09T05:09:00.952Z,100751.97
2022-10-09T05:11:27.833Z,100750.44
2022-10-09T05:13:56.328Z,100748.50
2022-10-09T05:16:26.690Z,100747.12
2022-10-09T05:18:54.964Z,100737.34
2022-10-09T05:21:22.528Z,100752.50
2022-10-09T05:23:54.493Z,100761.16
2022-10-09T05:26:23.041Z,100749.84
2022-10-09T05:28:50.694Z,100749.16
2022-10-09T05:31:27.749Z,100760.38
2022-10-09T05:33:56.273Z,100749.75
2022-10-09T05:36:23.430Z,100752.50
2022-10-09T05:38:50.277Z,100744.12
2022-10-09T05:41:18.799Z,100753.19
2022-10-09T05:43:47.471Z,100755.84
2022-10-09T05:46:23.477Z,100749.44
2022-10-09T05:49:07.517Z,100762.03
2022-10-09T05:51:37.118Z,100762.28
2022-10-09T05:54:05.153Z,100765.69
2022-10-09T05:56:34.341Z,100765.09
2022-10-09T05:59:04.022Z,100767.03
2022-10-09T06:01:40.020Z,100765.69
2022-10-09T06:04:10.882Z,100772.28
2022-10-09T06:06:38.555Z,100767.59
2022-10-09T06:09:06.808Z,100764.25
2022-10-09T06:11:35.629Z,100784.78
2022-10-09T06:14:04.535Z,100783.13
2022-10-09T06:16:33.290Z,100784.66
2022-10-09T06:19:00.970Z,100786.78
2022-10-09T06:21:28.557Z,100798.94
2022-10-09T06:24:00.221Z,100804.00
2022-10-09T06:26:31.233Z,100803.16
2022-10-09T06:28:59.411Z,100798.16
2022-10-09T06:31:28.756Z,100807.94
2022-10-09T06:33:56.282Z,100817.63
2022-10-09T06:36:25.240Z,100820.22
2022-10-09T06:38:53.041Z,100822.19
2022-10-09T06:41:25.381Z,100826.84
2022-10-09T06:43:57.142Z,100830.81
2022-10-09T06:46:26.974Z,100835.00
2022-10-09T06:48:53.945Z,100833.59
2022-10-09T06:51:22.253Z,100834.41
2022-10-09T06:53:51.306Z,100838.00
2022-10-09T06:56:19.842Z,100848.03
2022-10-09T06:58:49.566Z,100842.69
2022-10-09T07:01:20.762Z,100842.00
2022-10-09T07:03:58.638Z,100842.00
2022-10-09T07:06:27.923Z,100841.50
2022-10-09T07:08:58.104Z,100846.19
2022-10-09T07:11:28.003Z,100852.72
2022-10-09T07:13:59.677Z,100868.78
2022-10-09T07:16:28.817Z,100873.09
2022-10-09T07:18:56.073Z,100866.41
2022-10-09T07:21:24.045Z,100872.09
2022-10-09T07:23:51.391Z,100880.34
2022-10-09T07:26:23.753Z,100876.47
2022-10-09T07:28:51.285Z,100889.50
2022-10-09T07:31:18.745Z,100886.59
2022-10-09T07:33:53.713Z,100884.03
2022-10-09T07:36:20.962Z,100882.59
2022-10-09T07:38:56.035Z,100883.69
2022-10-09T07:41:25.230Z,100879.50
2022-10-09T07:43:52.188Z,100883.12
2022-10-09T07:46:20.590Z,100886.78
2022-10-09T07:48:48.355Z,100888.50
2022-10-09T07:51:25.500Z,100891.84
2022-10-09T07:53:53.224Z,100897.63
2022-10-09T07:56:25.433Z,100888.91
2022-10-09T07:58:57.765Z,100890.16
2022-10-09T08:01:25.577Z,100887.59
2022-10-09T08:03:52.715Z,100894.13
2022-10-09T08:06:22.971Z,100889.09
2022-10-09T08:08:54.718Z,100886.66
2022-10-09T08:11:24.001Z,100889.88
2022-10-09T08:13:51.402Z,100884.41
2022-10-09T08:16:22.419Z,100888.19
2022-10-09T08:18:49.781Z,100879.41
2022-10-09T08:21:19.662Z,100882.81
2022-10-09T08:23:53.022Z,100887.94
2022-10-09T08:26:22.079Z,100889.69
2022-10-09T08:28:53.781Z,100893.03
2022-10-09T08:31:21.605Z,100894.69
2022-10-09T08:33:52.086Z,100900.75
2022-10-09T08:36:18.951Z,100903.16
2022-10-09T08:38:49.080Z,100899.34
2022-10-09T08:41:24.910Z,100897.41
2022-10-09T08:43:57.247Z,100902.22
2022-10-09T08:46:29.153Z,100903.06
2022-10-09T08:48:56.396Z,100913.88
2022-10-09T08:51:26.382Z,100908.75
2022-10-09T08:54:04.822Z,100907.22
2022-10-09T08:56:33.342Z,100915.25
2022-10-09T08:59:01.990Z,100922.13
2022-10-09T09:01:45.363Z,100917.72
2022-10-09T09:04:25.671Z,100922.56
2022-10-09T09:07:19.410Z,100921.09
2022-10-09T09:10:03.716Z,100922.38
2022-10-09T09:13:13.542Z,100913.53
2022-10-09T09:15:40.585Z,100915.84
2022-10-09T09:18:32.026Z,100936.41
2022-10-09T09:21:05.462Z,100939.75
2022-10-09T09:23:38.507Z,100930.91
2022-10-09T09:26:12.537Z,100937.28
2022-10-09T09:28:39.798Z,100941.03
2022-10-09T09:31:13.363Z,100942.69
2022-10-09T09:33:45.102Z,100940.16
2022-10-09T09:36:20.077Z,100939.16
2022-10-09T09:39:32.471Z,100943.91
2022-10-09T09:41:39.367Z,100949.31
2022-10-09T09:44:06.339Z,100945.50
2022-10-09T09:46:34.145Z,100937.03
2022-10-09T09:49:02.997Z,100948.38
2022-10-09T09:51:33.022Z,100942.66
2022-10-09T09:54:04.870Z,100946.72
2022-10-09T09:56:59.691Z,100935.28
2022-10-09T09:59:34.010Z,100942.31
2022-10-09T10:02:12.548Z,100941.75
2022-10-09T10:05:08.345Z,100937.41
2022-10-09T10:07:36.958Z,100949.69
2022-10-09T10:10:09.777Z,100942.44
2022-10-09T10:12:45.194Z,100951.34
2022-10-09T10:15:24.332Z,100956.25
2022-10-09T10:18:06.571Z,100948.06
2022-10-09T10:20:43.266Z,100955.09
2022-10-09T10:23:38.093Z,100948.66
2022-10-09T10:26:36.905Z,100953.53
2022-10-09T10:29:09.172Z,100958.56
2022-10-09T10:31:57.358Z,100952.19
2022-10-09T10:34:31.070Z,100948.91
2022-10-09T10:37:13.261Z,100948.00
2022-10-09T10:39:48.797Z,100963.94
2022-10-09T10:42:22.813Z,100949.72
2022-10-09T10:44:57.782Z,100951.81
2022-10-09T10:47:27.865Z,100951.66
2022-10-09T10:49:54.758Z,100948.84
2022-10-09T10:52:31.154Z,100946.06
2022-10-09T10:55:22.067Z,100953.38
2022-10-09T10:58:29.132Z,100948.97
2022-10-09T11:01:16.291Z,100949.59
2022-10-09T11:04:15.511Z,100944.31
2022-10-09T11:06:56.661Z,100929.47
2022-10-09T11:09:31.968Z,100940.09
2022-10-09T11:12:48.262Z,100942.31
2022-10-09T11:15:56.947Z,100937.63
2022-10-09T11:18:50.237Z,100946.69
2022-10-09T11:21:42.605Z,100939.16
2022-10-09T11:24:21.738Z,100939.06
2022-10-09T11:27:03.030Z,100933.56
2022-10-09T11:29:38.884Z,100926.38
2022-10-09T11:32:21.873Z,100933.62
2022-10-09T11:35:12.167Z,100927.88
2022-10-09T11:37:41.089Z,100924.87
2022-10-09T11:40:24.437Z,100934.72
2022-10-09T11:43:04.575Z,100925.31
2022-10-09T11:45:58.071Z,100924.22
2022-10-09T11:48:37.287Z,100916.94
2022-10-09T11:51:33.673Z,100918.97
2022-10-09T11:54:01.229Z,100917.28
2022-10-09T11:56:32.169Z,100910.41
2022-10-09T11:59:06.600Z,100914.94
2022-10-09T12:01:40.262Z,100911.09
2022-10-09T12:04:09.025Z,100907.87
2022-10-09T12:06:48.610Z,100906.28
2022-10-09T12:09:21.316Z,100912.22
2022-10-09T12:11:57.986Z,100907.69
2022-10-09T12:14:27.201Z,100909.62
2022-10-09T12:16:54.271Z,100903.91
2022-10-09T12:19:30.735Z,100901.03
2022-10-09T12:22:05.847Z,100903.19
2022-10-09T12:24:45.914Z,100905.28
2022-10-09T12:27:28.803Z,100912.28
2022-10-09T12:30:05.624Z,100906.62
2022-10-09T12:32:36.840Z,100907.78
2022-10-09T12:35:36.134Z,100906.28
2022-10-09T12:38:16.119Z,100898.25
2022-10-09T12:40:46.981Z,100904.53
2022-10-09T12:43:18.573Z,100902.19
2022-10-09T12:45:47.370Z,100899.72
2022-10-09T12:48:14.558Z,100891.81
2022-10-09T12:50:41.417Z,100893.00
2022-10-09T12:53:27.411Z,100893.06
2022-10-09T12:56:00.930Z,100898.94
2022-10-09T12:58:30.438Z,100888.84
2022-10-09T13:01:06.119Z,100890.06
2022-10-09T13:03:37.369Z,100882.38
2022-10-09T13:06:07.492Z,100876.28
2022-10-09T13:08:38.834Z,100879.41
2022-10-09T13:11:38.068Z,100874.31
2022-10-09T13:14:05.089Z,100875.66
2022-10-09T13:16:42.885Z,100875.31
2022-10-09T13:19:29.389Z,100876.72
2022-10-09T13:22:07.096Z,100866.41
2022-10-09T13:24:35.863Z,100869.19
2022-10-09T13:27:04.197Z,100865.50
2022-10-09T13:29:31.503Z,100871.50
2022-10-09T13:31:58.750Z,100878.72
2022-10-09T13:34:28.303Z,100876.31
2022-10-09T13:36:56.136Z,100872.62
2022-10-09T13:39:22.992Z,100866.16
2022-10-09T13:41:53.005Z,100869.28
2022-10-09T13:44:19.929Z,100866.22
2022-10-09T13:46:46.805Z,100867.41
2022-10-09T13:49:13.926Z,100865.41
2022-10-09T13:51:40.819Z,100856.06
2022-10-09T13:54:07.701Z,100857.50
2022-10-09T13:56:34.857Z,100862.44
2022-10-09T13:59:01.719Z,100857.03
2022-10-09T14:01:28.622Z,100854.03
2022-10-09T14:03:55.819Z,100859.06
2022-10-09T14:06:22.917Z,100863.22
2022-10-09T14:08:52.789Z,100862.50
2022-10-09T14:11:19.950Z,100861.03
2022-10-09T14:13:49.885Z,100857.87
2022-10-09T14:16:17.204Z,100858.88
2022-10-09T14:18:44.342Z,100857.31
2022-10-09T14:21:15.223Z,100851.81
2022-10-09T14:23:42.940Z,100854.34
2022-10-09T14:26:10.381Z,100845.66
2022-10-09T14:28:37.493Z,100859.78
2022-10-09T14:31:06.497Z,100851.06
2022-10-09T14:33:34.001Z,100860.00
2022-10-09T14:36:08.726Z,100862.69
2022-10-09T14:38:37.612Z,100854.34
2022-10-09T14:41:05.342Z,100856.53
2022-10-09T14:43:32.526Z,100859.38
2022-10-09T14:46:08.441Z,100860.75
2022-10-09T14:48:35.722Z,100853.72
2022-10-09T14:51:07.416Z,100851.72
2022-10-09T14:53:34.319Z,100857.22
2022-10-09T14:56:05.839Z,100866.78
2022-10-09T14:58:34.179Z,100859.72
2022-10-09T15:01:01.524Z,100853.38
2022-10-09T15:03:29.591Z,100862.06
2022-10-09T15:05:58.010Z,100858.38
2022-10-09T15:08:25.933Z,100868.69
2022-10-09T15:10:53.063Z,100858.94
2022-10-09T15:13:20.158Z,100859.59
2022-10-09T15:15:47.221Z,100854.91
2022-10-09T15:18:14.159Z,100860.53
2022-10-09T15:20:45.361Z,100859.03
2022-10-09T15:23:13.167Z,100859.50
2022-10-09T15:25:40.094Z,100855.44
2022-10-09T15:28:07.280Z,100859.00
2022-10-09T15:30:34.184Z,100862.62
2022-10-09T15:33:01.950Z,100863.59
2022-10-09T15:35:29.054Z,100855.69
2022-10-09T15:37:56.009Z,100860.37
2022-10-09T15:40:22.846Z,100863.19
2022-10-09T15:42:50.146Z,100869.66
2022-10-09T15:45:17.279Z,100865.28
2022-10-09T15:47:51.581Z,100870.19
2022-10-09T15:50:18.812Z,100862.75
2022-10-09T15:52:45.773Z,100864.28
2022-10-09T15:55:12.638Z,100856.84
2022-10-09T15:57:39.742Z,100868.22
2022-10-09T16:00:07.187Z,100869.91
2022-10-09T16:02:34.315Z,100863.94
2022-10-09T16:05:01.186Z,100871.09
2022-10-09T16:07:28.047Z,100878.59
2022-10-09T16:09:55.169Z,100878.22
2022-10-09T16:12:22.013Z,100878.13
2022-10-09T16:14:48.918Z,100875.94
2022-10-09T16:17:16.029Z,100875.16
2022-10-09T16:19:43.028Z,100886.47
2022-10-09T16:22:09.922Z,100884.97
2022-10-09T16:24:37.044Z,100889.59
2022-10-09T16:27:03.935Z,100893.25
2022-10-09T16:29:30.773Z,100899.31
2022-10-09T16:31:57.883Z,100903.94
2022-10-09T16:34:24.726Z,100904.38
2022-10-09T16:36:51.603Z,100907.87
2022-10-09T16:39:18.710Z,100913.47
2022-10-09T16:41:45.583Z,100916.56
2022-10-09T16:44:13.942Z,100917.25
2022-10-09T16:46:41.041Z,100914.91
2022-10-09T16:49:13.632Z,100924.97
2022-10-09T16:51:40.488Z,100934.22
2022-10-09T16:54:07.591Z,100922.31
2022-10-09T16:56:37.429Z,100924.09
2022-10-09T16:59:07.410Z,100922.72
2022-10-09T17:01:40.236Z,100929.03
2022-10-09T17:04:07.074Z,100930.69
2022-10-09T17:06:34.332Z,100933.50
2022-10-09T17:09:01.231Z,100930.56
2022-10-09T17:11:29.862Z,100936.13
2022-10-09T17:13:57.836Z,100935.25
2022-10-09T17:16:28.161Z,100935.94
2022-10-09T17:18:55.359Z,100933.25
2022-10-09T17:21:22.899Z,100942.44
2022-10-09T17:23:53.534Z,100945.91
2022-10-09T17:26:20.960Z,100937.47
2022-10-09T17:28:51.481Z,100935.91
2022-10-09T17:31:21.851Z,100939.09
2022-10-09T17:33:55.749Z,100950.84
2022-10-09T17:36:26.241Z,100946.50
2022-10-09T17:38:53.529Z,100947.84
2022-10-09T17:41:24.549Z,100948.38
2022-10-09T17:43:52.577Z,100953.69
2022-10-09T17:46:20.302Z,100963.59
2022-10-09T17:48:53.187Z,100957.56
2022-10-09T17:51:31.455Z,100954.22
2022-10-09T17:54:01.197Z,100960.06
2022-10-09T17:56:29.594Z,100959.59
2022-10-09T17:58:56.493Z,100957.19
2022-10-09T18:01:23.866Z,100959.31
2022-10-09T18:03:53.791Z,100967.22
2022-10-09T18:06:24.159Z,100962.13
2022-10-09T18:08:54.366Z,100963.97
2022-10-09T18:11:22.748Z,100958.56
2022-10-09T18:13:49.623Z,100967.41
2022-10-09T18:16:24.972Z,100967.88
2022-10-09T18:18:51.913Z,100972.81
2022-10-09T18:21:19.071Z,100970.16
2022-10-09T18:23:47.158Z,100970.50
2022-10-09T18:26:19.323Z,100972.28
2022-10-09T18:28:48.440Z,100969.22
2022-10-09T18:31:20.755Z,100967.34
2022-10-09T18:33:52.048Z,100976.81
2022-10-09T18:36:22.812Z,100984.94
2022-10-09T18:38:54.668Z,100990.78
2022-10-09T18:41:23.182Z,100993.69
2022-10-09T18:43:53.967Z,100995.16
2022-10-09T18:46:23.136Z,100995.91
2022-10-09T18:48:51.333Z,101007.72
2022-10-09T18:51:20.533Z,101006.50
2022-10-09T18:53:52.994Z,101006.94
2022-10-09T18:56:23.450Z,101009.63
2022-10-09T18:58:53.546Z,101015.59
2022-10-09T19:01:23.745Z,101013.91
2022-10-09T19:03:53.812Z,101013.06
2022-10-09T19:06:20.989Z,101017.44
2022-10-09T19:08:52.543Z,101019.00
2022-10-09T19:11:22.490Z,101018.16
2022-10-09T19:13:54.125Z,101021.28
2022-10-09T19:16:24.353Z,101020.56
2022-10-09T19:18:53.260Z,101019.87
2022-10-09T19:21:23.092Z,101017.22
2022-10-09T19:23:54.147Z,101020.31
2022-10-09T19:26:24.242Z,101030.88
2022-10-09T19:28:53.983Z,101033.97
2022-10-09T19:31:21.075Z,101027.81
2022-10-09T19:33:50.791Z,101027.34
2022-10-09T19:36:18.047Z,101030.78
2022-10-09T19:38:45.668Z,101036.66
2022-10-09T19:41:14.609Z,101036.50
2022-10-09T19:43:42.219Z,101035.59
2022-10-09T19:46:12.066Z,101045.41
2022-10-09T19:48:39.046Z,101046.44
2022-10-09T19:51:11.750Z,101050.47
2022-10-09T19:53:38.903Z,101059.56
2022-10-09T19:56:20.110Z,101062.34
2022-10-09T19:58:51.101Z,101056.91
2022-10-09T20:01:23.395Z,101061.19
2022-10-09T20:03:58.020Z,101064.06
2022-10-09T20:06:25.102Z,101061.88
2022-10-09T20:08:52.310Z,101067.91
2022-10-09T20:11:22.655Z,101066.50
2022-10-09T20:13:55.938Z,101071.03
2022-10-09T20:16:24.723Z,101072.28
2022-10-09T20:18:51.654Z,101077.09
2022-10-09T20:21:18.693Z,101073.87
2022-10-09T20:23:46.012Z,101072.06
2022-10-09T20:26:18.336Z,101071.78
2022-10-09T20:28:46.320Z,101071.22
2022-10-09T20:31:18.249Z,101076.38
2022-10-09T20:33:45.842Z,101070.13
2022-10-09T20:36:25.367Z,101077.47
2022-10-09T20:38:55.223Z,101081.44
2022-10-09T20:41:22.475Z,101081.44
2022-10-09T20:43:51.053Z,101080.94
2022-10-09T20:46:23.662Z,101084.31
2022-10-09T20:48:53.801Z,101084.31
2022-10-09T20:51:24.168Z,101079.19
2022-10-09T20:53:56.211Z,101086.91
2022-10-09T20:56:24.942Z,101080.50
2022-10-09T20:58:52.113Z,101087.56
2022-10-09T21:01:19.275Z,101085.50
2022-10-09T21:03:48.492Z,101083.19
2022-10-09T21:06:18.294Z,101091.16
2022-10-09T21:08:45.236Z,101089.06
2022-10-09T21:11:13.992Z,101092.81
2022-10-09T21:13:41.654Z,101082.22
2022-10-09T21:16:11.907Z,101086.09
2022-10-09T21:18:39.157Z,101084.63
2022-10-09T21:21:13.526Z,101086.72
2022-10-09T21:23:41.348Z,101088.91
2022-10-09T21:26:16.403Z,101082.56
2022-10-09T21:28:46.434Z,101093.22
2022-10-09T21:31:20.626Z,101092.22
2022-10-09T21:33:48.258Z,101096.78
2022-10-09T21:36:32.943Z,101093.75
2022-10-09T21:39:00.167Z,101086.97
2022-10-09T21:41:27.214Z,101091.44
2022-10-09T21:43:54.996Z,101082.53
2022-10-09T21:46:22.794Z,101091.03
2022-10-09T21:48:49.800Z,101091.25
2022-10-09T21:51:18.094Z,101092.66
2022-10-09T21:53:45.282Z,101083.34
2022-10-09T21:56:12.147Z,101072.56
2022-10-09T21:58:40.287Z,101078.59
2022-10-09T22:01:07.788Z,101084.31
2022-10-09T22:03:36.612Z,101088.59
2022-10-09T22:06:06.564Z,101079.72
2022-10-09T22:08:33.951Z,101085.88
2022-10-09T22:11:04.037Z,101078.03
2022-10-09T22:13:30.877Z,101083.12
2022-10-09T22:15:57.733Z,101089.03
2022-10-09T22:18:24.867Z,101085.44
2022-10-09T22:20:51.785Z,101084.25
2022-10-09T22:23:20.140Z,101085.03
2022-10-09T22:25:58.174Z,101089.16
2022-10-09T22:28:25.198Z,101085.91
2022-10-09T22:31:06.927Z,101086.09
2022-10-09T22:33:34.826Z,101078.16
2022-10-09T22:36:13.070Z,101092.47
2022-10-09T22:38:40.606Z,101087.91
2022-10-09T22:41:22.013Z,101093.72
2022-10-09T22:43:53.470Z,101094.59
2022-10-09T22:46:30.032Z,101090.16
2022-10-09T22:48:57.053Z,101088.47
2022-10-09T22:51:26.051Z,101091.97
2022-10-09T22:53:53.099Z,101092.38
2022-10-09T22:56:29.080Z,101084.03
2022-10-09T22:58:56.198Z,101087.94
2022-10-09T23:01:29.925Z,101094.81
2022-10-09T23:04:02.325Z,101102.72
2022-10-09T23:06:29.192Z,101095.63
2022-10-09T23:08:56.547Z,101098.28
2022-10-09T23:11:23.743Z,101091.72
2022-10-09T23:13:55.715Z,101096.47
2022-10-09T23:16:26.822Z,101105.59
2022-10-09T23:18:54.238Z,101105.31
2022-10-09T23:21:22.956Z,101104.87
2022-10-09T23:23:50.715Z,101104.66
2022-10-09T23:26:26.569Z,101108.41
2022-10-09T23:28:56.049Z,101100.03
2022-10-09T23:31:24.143Z,101110.16
2022-10-09T23:33:51.205Z,101111.66
2022-10-09T23:36:22.801Z,101107.19
2022-10-09T23:38:49.987Z,101105.16
2022-10-09T23:41:21.828Z,101108.94
2022-10-09T23:43:52.182Z,101104.97
2022-10-09T23:46:24.475Z,101107.59
2022-10-09T23:48:54.503Z,101104.00
2022-10-09T23:51:25.577Z,101106.09
2022-10-09T23:53:56.138Z,101111.41
2022-10-09T23:56:28.366Z,101116.44
2022-10-09T23:58:56.378Z,101121.37
